Algosea — CFN4229 — position and weather

sailwx.info

Track history (hours):
 
Tides and Currents Weather Stations Pressure Air Temp Water Temp Dewpoint Dewpoint Depression Visibility Wind Speed Wind Dir Waves Ship Positions

Algosea

Last reported at 2014-Dec-13 23:31 UTC. Time now 2014-Dec-20 08:45 UTC.
Position N 45°23' W 083°08'.

Length 144 m; draft 6.2 m.

Type: Ship (hazmat cat C). MMSI: 316006868.

Date/timePositionNaut miles runAvg speedWind from/ knotsBaromVisibWave heightAir tempDewpointWater temp
2014-Dec-13 23:31N 45°23' W 083°08'3811.2
2014-Dec-13 20:08N 45°50' W 083°45'811.5
2014-Dec-13 19:28N 45°56' W 083°53'1010.3
2014-Dec-13 18:31N 46°04' W 084°01'1210.1
2014-Dec-13 17:23N 46°14' W 084°10'7 8.1
2014-Dec-13 16:33N 46°20' W 084°13'10 8.4
2014-Dec-13 15:21N 46°29' W 084°18'10 5.1
2014-Dec-13 13:19N 46°27' W 084°33'1011.7
2014-Dec-13 12:29N 46°35' W 084°42'9 9.8
2014-Dec-13 11:33N 46°42' W 084°50'9 9.3
2014-Dec-13 10:33N 46°49' W 084°58'  
2014-Dec-06 17:34N 42°27' W 080°14'1212.1
2014-Dec-06 16:34N 42°33' W 080°00'1212.3
2014-Dec-06 15:33N 42°45' W 080°05'3 3.1
2014-Dec-06 14:33N 42°48' W 080°03'0 0.0
2014-Dec-06 13:33N 42°48' W 080°03'0 0.0
2014-Dec-06 12:33N 42°48' W 080°03'0 0.0
2014-Dec-06 11:34N 42°48' W 080°03'0 0.0
2014-Dec-06 10:33N 42°48' W 080°03'0 0.0
2014-Dec-06 09:33N 42°48' W 080°03'0 0.0
2014-Dec-06 08:33N 42°48' W 080°03'0 0.0
2014-Dec-06 07:34N 42°48' W 080°03'0 0.0
2014-Dec-06 06:34N 42°48' W 080°03'0 0.0
2014-Dec-06 05:33N 42°48' W 080°03'0 0.0
2014-Dec-06 04:34N 42°48' W 080°03'0 0.0
2014-Dec-06 03:32N 42°48' W 080°03'0 0.0
2014-Dec-06 02:33N 42°48' W 080°03'0 0.0
2014-Dec-05 19:13N 42°48' W 080°03'0 0.0
2014-Dec-05 18:34N 42°48' W 080°03'0 0.0
2014-Dec-05 17:34N 42°48' W 080°03'0 0.0
2014-Dec-05 16:34N 42°48' W 080°03'0 0.0
2014-Dec-05 15:33N 42°48' W 080°03'0 0.0
2014-Dec-05 14:34N 42°48' W 080°03'0 0.0
2014-Dec-05 13:32N 42°48' W 080°03'0 0.0
2014-Dec-05 12:33N 42°48' W 080°03'0 0.0
2014-Dec-05 11:34N 42°48' W 080°03'0 0.0
2014-Dec-05 10:34N 42°48' W 080°03'0 0.0
2014-Dec-05 09:34N 42°48' W 080°03'4 4.4
2014-Dec-05 08:34N 42°44' W 080°06'1212.2
2014-Dec-05 07:34N 42°33' W 079°60'  
Track history (hours):
 
Tides and Currents Weather Stations Pressure Air Temp Water Temp Dewpoint Dewpoint Depression Visibility Wind Speed Wind Dir Waves Ship Positions

Algosea

Last reported at 2014-Dec-13 23:31 UTC. Time now 2014-Dec-20 08:45 UTC.
Position N 45°23' W 083°08'.

Length 144 m; draft 6.2 m.

Type: Ship (hazmat cat C). MMSI: 316006868.

Date/timePositionNaut miles runAvg speedWind from/ knotsBaromVisibWave heightAir tempDewpointWater temp
2014-Dec-13 23:31N 45°23' W 083°08'3811.2
2014-Dec-13 20:08N 45°50' W 083°45'811.5
2014-Dec-13 19:28N 45°56' W 083°53'1010.3
2014-Dec-13 18:31N 46°04' W 084°01'1210.1
2014-Dec-13 17:23N 46°14' W 084°10'7 8.1
2014-Dec-13 16:33N 46°20' W 084°13'10 8.4
2014-Dec-13 15:21N 46°29' W 084°18'10 5.1
2014-Dec-13 13:19N 46°27' W 084°33'1011.7
2014-Dec-13 12:29N 46°35' W 084°42'9 9.8
2014-Dec-13 11:33N 46°42' W 084°50'9 9.3
2014-Dec-13 10:33N 46°49' W 084°58'  
2014-Dec-06 17:34N 42°27' W 080°14'1212.1
2014-Dec-06 16:34N 42°33' W 080°00'1212.3
2014-Dec-06 15:33N 42°45' W 080°05'3 3.1
2014-Dec-06 14:33N 42°48' W 080°03'0 0.0
2014-Dec-06 13:33N 42°48' W 080°03'0 0.0
2014-Dec-06 12:33N 42°48' W 080°03'0 0.0
2014-Dec-06 11:34N 42°48' W 080°03'0 0.0
2014-Dec-06 10:33N 42°48' W 080°03'0 0.0
2014-Dec-06 09:33N 42°48' W 080°03'0 0.0
2014-Dec-06 08:33N 42°48' W 080°03'0 0.0
2014-Dec-06 07:34N 42°48' W 080°03'0 0.0
2014-Dec-06 06:34N 42°48' W 080°03'0 0.0
2014-Dec-06 05:33N 42°48' W 080°03'0 0.0
2014-Dec-06 04:34N 42°48' W 080°03'0 0.0
2014-Dec-06 03:32N 42°48' W 080°03'0 0.0
2014-Dec-06 02:33N 42°48' W 080°03'0 0.0
2014-Dec-05 19:13N 42°48' W 080°03'0 0.0
2014-Dec-05 18:34N 42°48' W 080°03'0 0.0
2014-Dec-05 17:34N 42°48' W 080°03'0 0.0
2014-Dec-05 16:34N 42°48' W 080°03'0 0.0
2014-Dec-05 15:33N 42°48' W 080°03'0 0.0
2014-Dec-05 14:34N 42°48' W 080°03'0 0.0
2014-Dec-05 13:32N 42°48' W 080°03'0 0.0
2014-Dec-05 12:33N 42°48' W 080°03'0 0.0
2014-Dec-05 11:34N 42°48' W 080°03'0 0.0
2014-Dec-05 10:34N 42°48' W 080°03'0 0.0
2014-Dec-05 09:34N 42°48' W 080°03'4 4.4
2014-Dec-05 08:34N 42°44' W 080°06'1212.2
2014-Dec-05 07:34N 42°33' W 079°60'  

Dump ship's entire track history